Time;durP1;ratioP1;P1;durP2;ratioP2;P2;SDS_P1;SDS_P2;PMS_P1;PMS_P2;Temp;Humidity;BMP_temperature;BMP_pressure;BME280_temperature;BME280_humidity;BME280_pressure;Samples;Min_cycle;Max_cycle;Signal;HPM_P1;HPM_P2
2021/03/14 00:02:15;;;;;;;4.67;3.10;;;;;;;5.58;73.17;98693.41;5080044;28;20173;-71
2021/03/14 00:04:41;;;;;;;3.83;3.30;;;;;;;5.65;72.47;98694.25;5083171;28;20168;-72
2021/03/14 00:07:07;;;;;;;3.80;3.23;;;;;;;5.73;72.56;98706.28;5086913;28;20168;-71
2021/03/14 00:09:33;;;;;;;4.73;3.10;;;;;;;5.36;73.23;98710.72;5087040;28;20196;-71
2021/03/14 00:11:58;;;;;;;10.10;3.80;;;;;;;6.26;70.88;98713.84;5086419;28;20197;-71
2021/03/14 00:14:23;;;;;;;4.77;3.27;;;;;;;5.77;71.72;98707.13;5086427;28;20407;-71
2021/03/14 00:16:50;;;;;;;4.50;3.20;;;;;;;5.49;73.41;98720.13;5086481;28;20177;-71
2021/03/14 00:19:16;;;;;;;4.73;3.37;;;;;;;5.51;73.63;98725.31;5087116;28;20169;-71
2021/03/14 00:21:41;;;;;;;4.83;3.20;;;;;;;5.71;72.43;98730.41;5086130;28;20785;-71
2021/03/14 00:24:06;;;;;;;10.03;3.80;;;;;;;5.70;72.30;98745.06;5086239;28;20177;-71
2021/03/14 00:26:32;;;;;;;5.73;3.90;;;;;;;5.86;72.57;98748.47;5086861;28;20240;-71
2021/03/14 00:28:57;;;;;;;8.83;4.10;;;;;;;5.89;72.59;98766.56;5086342;28;20295;-72
2021/03/14 00:31:22;;;;;;;6.47;4.47;;;;;;;5.72;73.14;98766.63;5086301;28;20169;-71
2021/03/14 00:33:48;;;;;;;8.47;4.50;;;;;;;5.94;72.38;98768.28;5086625;28;20212;-71
2021/03/14 00:36:13;;;;;;;10.43;5.20;;;;;;;5.99;72.77;98767.41;5085606;28;20234;-70
2021/03/14 00:38:38;;;;;;;11.50;4.50;;;;;;;6.45;71.30;98774.09;5082348;28;20177;-74
2021/03/14 00:41:03;;;;;;;7.00;4.23;;;;;;;6.09;73.25;98782.91;5079599;28;20423;-71
2021/03/14 00:43:29;;;;;;;12.10;4.77;;;;;;;5.93;73.05;98797.56;5079286;28;20161;-72
2021/03/14 00:45:54;;;;;;;7.67;4.20;;;;;;;5.85;72.22;98806.22;5079159;28;20246;-71
2021/03/14 00:48:20;;;;;;;6.17;3.80;;;;;;;5.80;73.57;98807.97;5079145;28;20195;-72
2021/03/14 00:50:45;;;;;;;9.00;3.70;;;;;;;6.26;71.24;98811.31;5079548;28;20177;-72
2021/03/14 00:53:10;;;;;;;6.20;3.00;;;;;;;6.07;71.16;98821.72;5079094;28;20208;-71
2021/03/14 00:55:36;;;;;;;3.87;3.40;;;;;;;5.57;72.80;98826.09;5079130;28;20187;-71
2021/03/14 00:58:02;;;;;;;5.13;3.03;;;;;;;6.14;71.44;98841.53;5079558;28;20192;-72
2021/03/14 01:00:28;;;;;;;5.50;2.90;;;;;;;5.81;72.02;98850.22;5078882;28;20430;-70
2021/03/14 01:02:53;;;;;;;8.63;3.30;;;;;;;5.72;72.59;98864.88;5078861;28;20473;-71
2021/03/14 01:05:19;;;;;;;9.87;3.40;;;;;;;6.10;71.87;98867.41;5079183;28;20234;-71
2021/03/14 01:07:44;;;;;;;5.20;2.97;;;;;;;6.07;72.32;98882.09;5078733;28;20218;-71
2021/03/14 01:10:11;;;;;;;4.47;3.27;;;;;;;5.45;73.55;98877.78;5077938;28;20589;-71
2021/03/14 01:12:40;;;;;;;3.53;2.80;;;;;;;5.51;72.77;98888.16;5079118;28;20199;-71
2021/03/14 01:15:11;;;;;;;4.10;3.20;;;;;;;5.85;71.45;98886.38;5078820;28;20419;-71
2021/03/14 01:17:37;;;;;;;4.50;3.50;;;;;;;5.50;73.37;98904.50;5085038;28;20506;-71
2021/03/14 01:20:08;;;;;;;4.73;3.70;;;;;;;5.70;72.42;98899.34;5079168;28;20507;-72
2021/03/14 01:22:34;;;;;;;5.40;3.57;;;;;;;5.34;73.88;98906.22;5078469;28;20230;-71
2021/03/14 01:24:59;;;;;;;4.03;2.93;;;;;;;5.72;71.88;98914.00;5078533;28;20415;-71
2021/03/14 01:27:24;;;;;;;4.87;3.70;;;;;;;5.79;72.65;98930.38;5078498;28;20602;-71
2021/03/14 01:29:49;;;;;;;4.50;3.03;;;;;;;5.30;73.68;98932.91;5078522;28;20173;-71
2021/03/14 01:32:16;;;;;;;5.17;3.20;;;;;;;5.23;74.84;98932.88;5078607;28;20200;-71
2021/03/14 01:34:41;;;;;;;8.53;4.93;;;;;;;5.27;73.50;98946.69;5078247;28;20252;-72
2021/03/14 01:37:06;;;;;;;5.00;3.20;;;;;;;5.55;72.02;98941.56;5077835;28;20499;-71
2021/03/14 01:39:32;;;;;;;6.07;3.80;;;;;;;5.57;72.63;98945.00;5085234;28;20169;-72
2021/03/14 01:41:57;;;;;;;4.67;3.57;;;;;;;6.13;70.74;98952.78;5088847;28;20184;-71
2021/03/14 01:44:22;;;;;;;5.80;4.30;;;;;;;5.64;72.73;98957.09;5084601;28;20165;-71
2021/03/14 01:46:48;;;;;;;5.77;4.00;;;;;;;5.67;73.80;98951.91;5082179;28;20169;-71
2021/03/14 01:49:14;;;;;;;6.00;3.87;;;;;;;6.22;71.25;98968.28;5079430;28;20197;-71
2021/03/14 01:51:40;;;;;;;6.70;3.80;;;;;;;5.83;72.13;98965.72;5078078;28;20247;-71
2021/03/14 01:54:05;;;;;;;9.90;4.93;;;;;;;5.94;72.73;98985.53;5079534;28;20399;-71
2021/03/14 01:56:30;;;;;;;5.47;3.93;;;;;;;5.60;73.00;98995.84;5077590;28;20494;-72
2021/03/14 01:58:56;;;;;;;5.93;4.03;;;;;;;6.01;72.46;98987.31;5078476;28;20214;-71
2021/03/14 02:01:21;;;;;;;4.77;3.80;;;;;;;5.70;72.26;98993.28;5079251;28;20192;-71
2021/03/14 02:03:46;;;;;;;9.30;5.17;;;;;;;6.12;71.58;99003.66;5080641;28;20165;-72
2021/03/14 02:06:12;;;;;;;8.80;3.90;;;;;;;5.76;71.71;98997.56;5082528;28;20242;-71
2021/03/14 02:08:37;;;;;;;7.10;4.20;;;;;;;6.09;71.13;99002.78;5089792;28;20231;-71
2021/03/14 02:11:03;;;;;;;6.37;3.57;;;;;;;6.09;70.80;99010.56;5082658;28;20473;-72
2021/03/14 02:13:30;;;;;;;6.60;3.93;;;;;;;6.32;70.58;99019.19;5078067;28;20235;-71
2021/03/14 02:15:58;;;;;;;6.20;4.10;;;;;;;6.12;72.00;99031.28;5079207;28;20238;-70
2021/03/14 02:18:24;;;;;;;6.03;4.00;;;;;;;5.72;72.66;99032.06;5080639;28;20408;-71
2021/03/14 02:20:50;;;;;;;12.63;5.13;;;;;;;5.90;73.46;99033.81;5078367;28;20510;-70
2021/03/14 02:23:34;;;;;;;8.80;5.73;;;;;;;6.03;72.49;99026.94;5078118;28;20724;-72
2021/03/14 02:26:05;;;;;;;8.20;4.40;;;;;;;5.74;73.77;99027.75;5077101;28;20459;-72
2021/03/14 02:28:31;;;;;;;12.30;6.00;;;;;;;6.42;71.24;99037.31;5077870;28;20518;-72
2021/03/14 02:30:58;;;;;;;10.53;5.93;;;;;;;6.03;72.91;99038.16;5077084;28;20446;-71
2021/03/14 02:33:25;;;;;;;13.97;5.70;;;;;;;5.81;73.31;99045.00;5077813;28;20228;-71
2021/03/14 02:35:52;;;;;;;15.50;8.57;;;;;;;6.36;72.19;99046.78;5077631;28;20800;-71
2021/03/14 02:38:18;;;;;;;9.57;5.57;;;;;;;5.81;72.41;99051.91;5076986;28;20434;-70
2021/03/14 02:40:44;;;;;;;12.17;6.20;;;;;;;6.27;71.00;99057.13;5077030;28;20410;-70
2021/03/14 02:43:10;;;;;;;11.00;5.80;;;;;;;6.34;71.24;99058.84;5078122;28;20169;-70
2021/03/14 02:45:35;;;;;;;11.93;5.20;;;;;;;6.17;69.95;99066.63;5077667;28;20168;-71
2021/03/14 02:48:02;;;;;;;10.40;5.63;;;;;;;6.40;70.35;99076.13;5077764;28;20407;-71
2021/03/14 02:50:27;;;;;;;12.03;5.80;;;;;;;6.14;70.80;99092.47;5077536;28;20170;-70
2021/03/14 02:52:53;;;;;;;16.70;6.33;;;;;;;5.93;72.12;99095.88;5077355;28;20864;-71
2021/03/14 02:55:22;;;;;;;12.57;5.93;;;;;;;6.40;70.64;99095.09;5077167;28;20169;-71
2021/03/14 02:57:48;;;;;;;13.90;6.37;;;;;;;6.05;71.27;99106.28;5079160;28;20403;-71
2021/03/14 03:00:22;;;;;;;11.30;6.57;;;;;;;6.29;70.60;99099.44;5077749;28;20434;-72
2021/03/14 03:02:49;;;;;;;8.17;5.43;;;;;;;6.02;69.65;99102.81;5077582;28;20439;-71
2021/03/14 03:05:15;;;;;;;16.70;6.20;;;;;;;5.98;71.43;99106.25;5077273;28;20875;-71
2021/03/14 03:07:44;;;;;;;9.10;5.47;;;;;;;6.30;68.48;99116.66;5079460;28;20414;-69
2021/03/14 03:10:10;;;;;;;11.30;5.20;;;;;;;6.42;69.04;99127.91;5082033;28;20404;-70
2021/03/14 03:12:35;;;;;;;7.43;4.80;;;;;;;6.09;68.43;99125.28;5081135;28;20463;-71
2021/03/14 03:15:01;;;;;;;8.53;4.93;;;;;;;6.36;68.28;99124.44;5081642;28;20426;-71
2021/03/14 03:17:26;;;;;;;11.27;4.60;;;;;;;6.75;66.44;99139.94;5081104;28;20165;-71
2021/03/14 03:19:53;;;;;;;9.30;6.13;;;;;;;6.58;66.24;99140.81;5080361;28;20175;-71
2021/03/14 03:22:18;;;;;;;7.70;4.60;;;;;;;6.35;67.40;99150.31;5080207;28;20208;-71
2021/03/14 03:24:43;;;;;;;10.13;5.10;;;;;;;6.37;66.78;99157.22;5081280;28;20710;-71
2021/03/14 03:27:09;;;;;;;10.17;4.70;;;;;;;6.86;65.98;99155.47;5081108;28;20220;-72
2021/03/14 03:29:34;;;;;;;8.83;4.63;;;;;;;6.28;66.93;99167.56;5080832;28;20169;-71
2021/03/14 03:31:59;;;;;;;14.10;7.80;;;;;;;6.69;65.50;99169.31;5081075;28;20207;-71
2021/03/14 03:34:25;;;;;;;38.97;22.73;;;;;;;6.18;68.28;99181.34;5080733;28;20180;-72
2021/03/14 03:36:50;;;;;;;26.13;15.10;;;;;;;6.73;65.67;99181.41;5080724;28;20252;-72
2021/03/14 03:39:15;;;;;;;51.33;26.97;;;;;;;6.65;65.55;99190.88;5081353;28;20231;-70
2021/03/14 03:41:55;;;;;;;9.87;4.47;;;;;;;6.50;65.87;99202.09;5079841;28;20440;-71
2021/03/14 03:44:23;;;;;;;11.50;5.30;;;;;;;6.42;65.83;99210.72;5079885;28;20169;-71
2021/03/14 03:46:51;;;;;;;7.00;4.87;;;;;;;6.71;64.97;99205.56;5080696;28;20407;-71
2021/03/14 03:49:22;;;;;;;11.20;6.53;;;;;;;6.45;66.00;99216.75;5079865;28;20443;-71
2021/03/14 03:51:47;;;;;;;9.47;5.30;;;;;;;6.15;66.34;99217.56;5079501;28;20874;-70
2021/03/14 03:54:14;;;;;;;8.03;5.30;;;;;;;6.17;66.73;99215.81;5079708;28;20411;-71
2021/03/14 03:56:39;;;;;;;11.03;5.67;;;;;;;6.34;66.19;99228.81;5079893;28;20165;-71
2021/03/14 03:59:06;;;;;;;5.90;4.60;;;;;;;6.26;65.70;99241.72;5079541;28;20434;-71
2021/03/14 04:01:31;;;;;;;8.80;4.73;;;;;;;6.11;66.53;99257.22;5079185;28;20462;-71
2021/03/14 04:03:58;;;;;;;11.30;4.80;;;;;;;6.45;67.00;99252.16;5080874;28;20494;-70
2021/03/14 04:06:24;;;;;;;10.33;6.80;;;;;;;6.18;66.68;99249.50;5079359;28;20543;-71
2021/03/14 04:08:49;;;;;;;14.37;5.83;;;;;;;6.44;66.12;99258.19;5079886;28;20415;-70
2021/03/14 04:11:17;;;;;;;7.77;5.27;;;;;;;6.46;66.58;99256.47;5079573;28;20419;-71
2021/03/14 04:13:44;;;;;;;20.13;11.27;;;;;;;6.31;67.06;99265.06;5079139;28;20197;-71
2021/03/14 04:16:10;;;;;;;11.63;4.80;;;;;;;6.65;65.80;99265.13;5080034;28;20820;-70
2021/03/14 04:18:37;;;;;;;8.43;4.60;;;;;;;6.57;65.28;99280.66;5079411;28;20422;-72
2021/03/14 04:21:04;;;;;;;7.67;5.67;;;;;;;6.51;65.84;99296.19;5078997;28;20494;-72
2021/03/14 04:23:31;;;;;;;8.27;5.00;;;;;;;6.19;66.63;99287.44;5064547;28;20422;-70
2021/03/14 04:25:57;;;;;;;10.73;5.23;;;;;;;6.69;65.39;99292.75;5082679;28;20508;-70
2021/03/14 04:28:25;;;;;;;10.50;5.93;;;;;;;6.39;66.40;99305.63;5081382;28;20411;-71
2021/03/14 04:30:52;;;;;;;11.87;4.80;;;;;;;6.64;65.99;99310.88;5079332;28;20827;-71
2021/03/14 04:33:18;;;;;;;10.83;6.03;;;;;;;6.97;65.21;99314.41;5078773;28;20457;-71
2021/03/14 04:35:44;;;;;;;4.40;4.00;;;;;;;6.93;65.25;99320.44;5078820;28;20403;-71
2021/03/14 04:38:10;;;;;;;6.10;4.73;;;;;;;6.70;66.85;99316.06;5079873;28;20215;-70
2021/03/14 04:40:35;;;;;;;24.33;13.03;;;;;;;6.82;64.92;99317.84;5078702;28;20828;-71
2021/03/14 04:43:02;;;;;;;12.90;5.57;;;;;;;6.52;66.77;99331.53;5078634;28;20169;-70
2021/03/14 04:45:27;;;;;;;7.57;5.23;;;;;;;6.75;65.69;99334.19;5079798;28;20514;-70
2021/03/14 04:47:53;;;;;;;7.67;4.80;;;;;;;6.70;65.79;99341.97;5078383;28;20415;-71
2021/03/14 04:50:22;;;;;;;15.10;5.67;;;;;;;6.93;65.29;99359.31;5079152;28;20160;-71
2021/03/14 04:52:50;;;;;;;10.03;5.23;;;;;;;6.70;66.83;99351.47;5079522;28;20322;-70
2021/03/14 04:55:16;;;;;;;10.27;5.70;;;;;;;7.08;65.43;99363.66;5078531;28;20454;-71
2021/03/14 04:57:42;;;;;;;8.93;5.13;;;;;;;7.06;65.08;99366.25;5078999;28;20443;-72
2021/03/14 05:00:10;;;;;;;11.80;5.47;;;;;;;7.03;66.22;99375.72;5078894;28;20458;-71
2021/03/14 05:02:37;;;;;;;14.07;5.57;;;;;;;6.82;66.05;99386.88;5078828;28;20164;-70
2021/03/14 05:05:04;;;;;;;11.07;5.03;;;;;;;6.96;65.37;99382.63;5078072;28;20801;-72
2021/03/14 05:07:29;;;;;;;10.77;5.03;;;;;;;7.16;64.85;99387.00;5079311;28;20402;-71
2021/03/14 05:09:56;;;;;;;16.43;5.50;;;;;;;7.24;65.03;99391.31;5083007;28;20686;-72
2021/03/14 05:12:22;;;;;;;7.13;4.53;;;;;;;6.82;64.93;99407.59;5079964;28;20455;-71
2021/03/14 05:14:47;;;;;;;12.50;5.20;;;;;;;6.82;64.59;99407.59;5078306;28;20457;-71
2021/03/14 05:17:12;;;;;;;7.93;4.80;;;;;;;7.03;63.16;99402.47;5078799;28;20169;-71
2021/03/14 05:19:38;;;;;;;13.33;5.07;;;;;;;6.75;64.43;99422.25;5078031;28;20173;-71
2021/03/14 05:22:03;;;;;;;8.97;4.60;;;;;;;6.94;63.26;99418.03;5078439;28;20566;-70
2021/03/14 05:24:29;;;;;;;10.00;5.20;;;;;;;7.23;62.45;99435.38;5077945;28;20249;-71
2021/03/14 05:26:55;;;;;;;9.00;4.87;;;;;;;7.20;64.34;99432.78;5077710;28;20227;-71
2021/03/14 05:29:23;;;;;;;14.43;5.47;;;;;;;7.13;62.65;99444.88;5078011;28;20422;-71
2021/03/14 05:31:48;;;;;;;7.60;5.03;;;;;;;7.26;62.87;99450.94;5078305;28;20408;-70
2021/03/14 05:34:15;;;;;;;10.63;4.93;;;;;;;7.57;62.48;99445.78;5078422;28;20422;-70
2021/03/14 05:36:40;;;;;;;14.70;5.60;;;;;;;6.74;65.31;99462.00;5078744;28;20161;-71
2021/03/14 05:39:06;;;;;;;11.03;5.60;;;;;;;7.05;65.04;99456.94;5078400;28;20415;-70
2021/03/14 05:41:33;;;;;;;16.80;6.10;;;;;;;7.58;63.83;99463.09;5078246;28;20506;-71
2021/03/14 05:44:00;;;;;;;16.63;5.97;;;;;;;7.48;63.57;99472.59;5078803;28;20427;-70
2021/03/14 05:46:25;;;;;;;13.90;6.00;;;;;;;7.01;65.32;99475.88;5078237;28;20411;-70
2021/03/14 05:48:50;;;;;;;11.33;5.43;;;;;;;7.65;63.88;99476.94;5078274;28;20440;-71
2021/03/14 05:51:36;;;;;;;17.97;5.90;;;;;;;7.49;64.14;99491.59;5078604;28;20190;-71
2021/03/14 05:54:02;;;;;;;7.53;4.67;;;;;;;7.75;63.38;99495.09;5078217;28;20203;-70
2021/03/14 05:56:28;;;;;;;12.63;4.90;;;;;;;7.36;63.69;99493.28;5077564;28;20415;-70
2021/03/14 05:58:55;;;;;;;13.93;5.10;;;;;;;7.18;63.93;99505.31;5078146;28;20506;-70
2021/03/14 06:01:23;;;;;;;12.37;5.20;;;;;;;7.31;63.72;99508.84;5077826;28;20435;-70
2021/03/14 06:03:49;;;;;;;12.13;5.27;;;;;;;7.70;62.36;99517.56;5078667;28;20445;-70
2021/03/14 06:06:15;;;;;;;8.83;5.33;;;;;;;7.22;63.76;99526.94;5078350;28;20403;-69
2021/03/14 06:08:41;;;;;;;13.50;5.30;;;;;;;7.32;63.62;99530.44;5078354;28;20168;-70
2021/03/14 06:11:07;;;;;;;11.07;5.17;;;;;;;7.67;62.90;99534.84;5078431;28;20157;-72
2021/03/14 06:13:33;;;;;;;12.60;5.47;;;;;;;7.48;63.37;99552.09;5077915;28;20461;-74
2021/03/14 06:15:59;;;;;;;10.50;6.50;;;;;;;7.06;64.24;99557.13;5076632;28;20437;-72
2021/03/14 06:18:25;;;;;;;10.47;5.50;;;;;;;7.83;62.45;99559.09;5078317;28;20427;-72
2021/03/14 06:20:51;;;;;;;14.43;5.37;;;;;;;7.68;63.07;99563.38;5077716;28;20204;-72
2021/03/14 06:23:17;;;;;;;16.37;6.80;;;;;;;7.55;64.03;99578.06;5077811;28;20742;-74
2021/03/14 06:25:45;;;;;;;12.67;5.13;;;;;;;7.57;64.63;99580.66;5077572;28;20477;-72
2021/03/14 06:28:11;;;;;;;13.10;5.87;;;;;;;7.53;65.33;99589.28;5077842;28;20465;-73
2021/03/14 06:30:37;;;;;;;13.23;5.27;;;;;;;7.13;67.18;99599.47;5077239;28;20823;-73
2021/03/14 06:33:16;;;;;;;10.40;5.70;;;;;;;7.56;66.15;99599.66;5077562;28;20474;-73
2021/03/14 06:35:51;;;;;;;16.60;5.63;;;;;;;7.27;67.26;99608.19;5077683;28;21478;-71
2021/03/14 06:38:27;;;;;;;15.80;5.67;;;;;;;7.76;65.09;99610.97;5077753;28;20688;-72
2021/03/14 06:41:17;;;;;;;14.27;6.97;;;;;;;7.70;65.45;99616.16;5076949;28;20434;-72
2021/03/14 06:43:49;;;;;;;12.30;5.30;;;;;;;7.80;64.28;99626.56;5081526;28;20411;-72
2021/03/14 06:46:19;;;;;;;14.77;5.70;;;;;;;7.79;64.46;99632.59;5081546;28;20685;-72
2021/03/14 06:48:45;;;;;;;11.77;5.63;;;;;;;7.85;64.41;99645.63;5081537;28;20467;-75
2021/03/14 06:51:10;;;;;;;14.40;6.20;;;;;;;7.68;64.67;99643.81;5081132;28;20423;-72
2021/03/14 06:53:36;;;;;;;12.33;6.17;;;;;;;7.78;64.60;99657.69;5081644;28;20193;-73
2021/03/14 06:56:05;;;;;;;19.87;6.10;;;;;;;7.80;64.17;99661.16;5081343;28;20176;-73
2021/03/14 06:58:34;;;;;;;8.87;5.40;;;;;;;8.11;63.93;99675.97;5081369;28;20176;-74
2021/03/14 07:01:16;;;;;;;13.67;5.60;;;;;;;7.82;65.15;99679.31;5081360;28;20427;-73
2021/03/14 07:03:51;;;;;;;15.60;5.80;;;;;;;7.86;65.13;99691.44;5081701;28;20777;-73
2021/03/14 07:06:24;;;;;;;17.40;5.27;;;;;;;7.72;65.61;99700.03;5086170;28;20418;-74
2021/03/14 07:09:09;;;;;;;13.83;6.23;;;;;;;7.63;65.72;99700.00;5083694;28;20705;-75
2021/03/14 07:11:39;;;;;;;14.83;6.30;;;;;;;7.47;65.94;99716.31;5081548;28;20823;-73
2021/03/14 07:14:10;;;;;;;20.73;5.60;;;;;;;7.67;65.65;99727.69;5081110;28;20471;-74
2021/03/14 07:17:01;;;;;;;13.60;6.70;;;;;;;7.69;65.48;99738.06;5081091;28;20410;-74
2021/03/14 07:19:29;;;;;;;11.00;5.80;;;;;;;7.62;65.64;99752.75;5080711;28;20451;-74
2021/03/14 07:22:05;;;;;;;11.10;5.70;;;;;;;7.91;64.93;99744.22;5080783;28;20415;-72
2021/03/14 07:24:42;;;;;;;15.13;5.30;;;;;;;7.73;66.80;99748.47;5080798;28;20502;-74
2021/03/14 07:27:12;;;;;;;11.60;5.30;;;;;;;7.62;65.55;99764.81;5080725;28;20469;-72
2021/03/14 07:29:39;;;;;;;13.40;5.80;;;;;;;7.62;65.76;99770.91;5080847;28;20459;-73
2021/03/14 07:32:06;;;;;;;15.43;5.60;;;;;;;7.85;65.01;99772.75;5080482;28;20805;-72
2021/03/14 07:34:32;;;;;;;12.40;5.73;;;;;;;7.67;65.62;99783.88;5080814;28;20475;-73
2021/03/14 07:36:57;;;;;;;12.93;6.00;;;;;;;7.64;65.56;99789.06;5079841;28;20435;-74
2021/03/14 07:39:22;;;;;;;11.60;6.00;;;;;;;7.90;65.20;99791.78;5080594;28;20454;-73
2021/03/14 07:41:48;;;;;;;12.50;5.23;;;;;;;7.85;64.47;99793.50;5080786;28;20179;-74
2021/03/14 07:44:17;;;;;;;9.27;5.27;;;;;;;7.74;65.46;99796.91;5080587;28;20165;-74
2021/03/14 07:46:43;;;;;;;9.60;5.33;;;;;;;8.30;63.24;99799.75;5080518;28;20796;-71
2021/03/14 07:49:29;;;;;;;13.70;6.57;;;;;;;8.12;63.87;99810.06;5080949;28;20399;-71
2021/03/14 07:52:03;;;;;;;16.27;5.63;;;;;;;7.73;64.63;99815.06;5080287;28;20427;-72
2021/03/14 07:54:35;;;;;;;13.80;5.90;;;;;;;8.17;63.66;99823.94;5078355;28;20423;-71
2021/03/14 07:57:01;;;;;;;13.73;6.10;;;;;;;8.53;62.23;99818.06;5079635;28;20624;-71
2021/03/14 07:59:30;;;;;;;12.73;6.03;;;;;;;8.43;62.65;99824.06;5080231;28;20407;-72
2021/03/14 08:02:18;;;;;;;9.33;5.17;;;;;;;8.64;62.60;99820.69;5080063;28;20426;-71
2021/03/14 08:04:46;;;;;;;16.17;7.20;;;;;;;8.43;63.52;99829.25;5080194;28;20399;-71
2021/03/14 08:07:12;;;;;;;15.07;5.40;;;;;;;8.70;62.63;99838.91;5080488;28;20820;-71
2021/03/14 08:09:47;;;;;;;11.43;5.60;;;;;;;8.91;61.86;99832.84;5081405;28;20423;-73
2021/03/14 08:12:23;;;;;;;11.47;5.40;;;;;;;8.78;62.75;99844.09;5081949;28;20193;-73
2021/03/14 08:14:53;;;;;;;13.47;5.30;;;;;;;8.41;63.81;99851.75;5084666;28;20426;-71
2021/03/14 08:17:26;;;;;;;10.60;5.13;;;;;;;8.63;63.57;99857.06;5084369;28;20670;-70
2021/03/14 08:19:53;;;;;;;14.30;6.07;;;;;;;8.65;63.83;99856.19;5081105;28;20422;-74
2021/03/14 08:22:41;;;;;;;13.20;6.30;;;;;;;8.51;64.09;99863.94;5080017;28;20680;-72
2021/03/14 08:25:20;;;;;;;9.00;5.70;;;;;;;8.87;63.02;99871.84;5079850;28;20451;-72
2021/03/14 08:27:46;;;;;;;17.70;5.73;;;;;;;8.62;62.62;99871.78;5080194;28;20423;-73
2021/03/14 08:30:34;;;;;;;16.73;5.77;;;;;;;8.93;61.84;99888.34;5079989;28;20411;-72
2021/03/14 08:33:17;;;;;;;13.50;5.43;;;;;;;9.30;60.77;99895.34;5082417;28;20722;-71
2021/03/14 08:35:44;;;;;;;13.60;5.20;;;;;;;9.04;61.22;99893.56;5082998;28;20412;-73
2021/03/14 08:38:35;;;;;;;11.20;5.40;;;;;;;8.75;62.20;99909.06;5083289;28;20418;-72
2021/03/14 08:41:26;;;;;;;13.27;5.33;;;;;;;9.23;60.22;99901.41;5080303;28;20423;-73
2021/03/14 08:43:58;;;;;;;14.60;5.13;;;;;;;8.84;62.59;99914.28;5079829;28;20419;-72
2021/03/14 08:46:50;;;;;;;11.47;4.90;;;;;;;9.95;58.28;99908.34;5079558;28;20458;-72
2021/03/14 08:49:20;;;;;;;13.50;5.03;;;;;;;11.00;55.63;99904.53;5079582;28;20816;-72
2021/03/14 08:51:46;;;;;;;10.60;4.90;;;;;;;10.36;57.47;99912.63;5079489;28;20556;-71
2021/03/14 08:54:11;;;;;;;10.37;6.20;;;;;;;10.31;57.00;99921.28;5079198;28;20910;-72
2021/03/14 08:56:37;;;;;;;10.20;4.50;;;;;;;9.38;59.55;99922.22;5078549;28;20493;-71
2021/03/14 08:59:06;;;;;;;9.00;4.37;;;;;;;9.58;58.71;99927.44;5079517;28;20555;-72
2021/03/14 09:01:33;;;;;;;10.63;4.93;;;;;;;9.52;58.18;99935.22;5079140;28;20196;-72
2021/03/14 09:04:09;;;;;;;11.20;4.20;;;;;;;9.33;59.07;99936.94;5082778;28;20833;-72
2021/03/14 09:06:34;;;;;;;11.30;4.57;;;;;;;9.91;57.19;99941.31;5078763;28;20421;-71
2021/03/14 09:09:01;;;;;;;5.53;3.80;;;;;;;9.27;58.25;99945.59;5078709;28;20403;-71
2021/03/14 09:11:49;;;;;;;8.20;3.43;;;;;;;9.14;57.83;99954.25;5079318;28;20431;-71
2021/03/14 09:14:32;;;;;;;7.83;3.93;;;;;;;9.48;57.24;99961.25;5078604;28;20586;-71
2021/03/14 09:17:06;;;;;;;12.63;5.00;;;;;;;9.68;57.53;99956.94;5078797;28;20419;-70
2021/03/14 09:19:34;;;;;;;6.23;4.30;;;;;;;8.85;59.67;99978.41;5078571;28;20508;-72
2021/03/14 09:22:20;;;;;;;5.63;4.00;;;;;;;9.91;57.11;99967.34;5080653;28;20411;-72
2021/03/14 09:24:47;;;;;;;10.83;4.07;;;;;;;10.06;55.88;99971.69;5083867;28;20796;-72
2021/03/14 09:27:24;;;;;;;7.40;3.80;;;;;;;10.23;54.85;99963.00;5079988;28;20463;-72
2021/03/14 09:29:56;;;;;;;10.37;4.10;;;;;;;10.65;53.76;99978.56;5079605;28;20695;-71
2021/03/14 09:32:31;;;;;;;9.80;3.90;;;;;;;10.63;54.35;99980.31;5078133;28;20465;-71
2021/03/14 09:35:12;;;;;;;6.53;3.70;;;;;;;11.04;53.58;99982.78;5078407;28;20430;-73
2021/03/14 09:37:38;;;;;;;7.57;3.57;;;;;;;10.42;54.46;99982.97;5078510;28;20495;-71
2021/03/14 09:40:13;;;;;;;11.90;4.20;;;;;;;10.59;55.02;99990.75;5078231;28;20419;-72
2021/03/14 09:42:39;;;;;;;6.40;3.90;;;;;;;10.97;53.63;99991.47;5078366;28;20454;-72
2021/03/14 09:45:08;;;;;;;7.57;4.27;;;;;;;11.27;52.76;99994.81;5078356;28;20876;-72
2021/03/14 09:47:33;;;;;;;6.90;3.53;;;;;;;11.88;50.82;100003.13;5079059;28;20419;-73
2021/03/14 09:50:00;;;;;;;8.33;3.97;;;;;;;12.61;48.04;99999.03;5079288;28;20541;-72
2021/03/14 09:52:25;;;;;;;7.60;3.93;;;;;;;12.41;48.01;100001.84;5078611;28;20241;-71
2021/03/14 09:54:51;;;;;;;6.30;3.40;;;;;;;13.16;46.45;100014.09;5078412;28;20429;-73
2021/03/14 09:57:20;;;;;;;8.90;3.63;;;;;;;11.58;49.38;100015.53;5079141;28;20176;-73
2021/03/14 09:59:45;;;;;;;13.83;4.27;;;;;;;13.19;45.42;100009.69;5077604;28;20455;-73
2021/03/14 10:02:11;;;;;;;11.33;3.60;;;;;;;13.25;44.55;100009.59;5077747;28;20394;-72
2021/03/14 10:04:48;;;;;;;6.67;3.53;;;;;;;14.44;42.12;100001.69;5078703;28;20468;-73
2021/03/14 10:07:24;;;;;;;7.97;4.03;;;;;;;12.61;45.58;100021.69;5077988;28;20263;-73
2021/03/14 10:09:50;;;;;;;13.30;4.40;;;;;;;11.54;48.96;100039.91;5078631;28;20419;-73
2021/03/14 10:12:16;;;;;;;5.20;3.40;;;;;;;10.41;54.63;100054.19;5079417;28;20615;-73
2021/03/14 10:14:41;;;;;;;3.90;2.80;;;;;;;9.68;56.28;100045.44;5079347;28;20165;-72
2021/03/14 10:17:07;;;;;;;5.27;2.90;;;;;;;9.59;58.65;100055.81;5079624;28;20690;-74
2021/03/14 10:19:32;;;;;;;6.53;3.30;;;;;;;9.76;58.80;100059.31;5081739;28;20191;-72
2021/03/14 10:21:57;;;;;;;6.33;3.17;;;;;;;9.55;59.80;100064.47;5082361;28;20538;-73
2021/03/14 10:24:25;;;;;;;10.00;3.90;;;;;;;10.98;57.18;100061.03;5082656;28;20181;-73
2021/03/14 10:27:04;;;;;;;7.23;3.80;;;;;;;12.09;53.91;100051.78;5081233;28;20303;-74
2021/03/14 10:29:31;;;;;;;6.23;3.40;;;;;;;13.63;50.35;100036.19;5082192;28;20422;-74
2021/03/14 10:31:56;;;;;;;5.87;4.00;;;;;;;13.88;49.32;100043.69;5081791;28;20419;-74
2021/03/14 10:34:23;;;;;;;5.67;3.40;;;;;;;14.48;47.47;100048.81;5082000;28;20401;-72
2021/03/14 10:36:49;;;;;;;8.40;4.17;;;;;;;15.18;46.48;100044.03;5082508;28;20172;-72
2021/03/14 10:39:14;;;;;;;10.77;5.30;;;;;;;15.06;47.71;100051.28;5082022;28;20839;-72
2021/03/14 10:41:42;;;;;;;6.60;4.00;;;;;;;15.32;46.63;100049.88;5080793;28;20188;-73
2021/03/14 10:44:08;;;;;;;10.17;3.77;;;;;;;13.06;48.96;100058.69;5082150;28;20180;-72
2021/03/14 10:46:34;;;;;;;12.07;4.30;;;;;;;14.63;46.27;100041.59;5081869;28;20797;-72
2021/03/14 10:49:07;;;;;;;7.37;3.47;;;;;;;12.57;50.17;100067.94;5081506;28;20184;-72
2021/03/14 10:51:33;;;;;;;9.97;3.80;;;;;;;10.93;55.76;100078.44;5081751;28;20421;-81
2021/03/14 10:54:06;;;;;;;5.63;3.93;;;;;;;11.14;56.65;100092.31;5081622;28;20868;-72
2021/03/14 10:56:49;;;;;;;8.90;3.90;;;;;;;10.27;58.16;100093.25;5081420;28;20859;-72
2021/03/14 10:59:28;;;;;;;7.17;3.93;;;;;;;10.23;58.42;100094.13;5081999;28;20418;-74
2021/03/14 11:02:04;;;;;;;6.67;4.00;;;;;;;10.02;59.54;100094.94;5085438;28;20414;-74
2021/03/14 11:04:30;;;;;;;11.30;3.60;;;;;;;10.18;59.28;100103.66;5080943;28;20411;-76
2021/03/14 11:06:56;;;;;;;7.13;3.83;;;;;;;10.16;59.97;100101.91;5080342;28;20424;-74
2021/03/14 11:09:23;;;;;;;8.10;3.87;;;;;;;10.05;59.80;100108.00;5081154;28;20231;-72
2021/03/14 11:11:50;;;;;;;11.27;4.60;;;;;;;10.08;60.82;100105.38;5080934;28;20434;-72
2021/03/14 11:14:42;;;;;;;8.57;4.37;;;;;;;9.77;60.78;100112.28;5081345;28;20482;-73
2021/03/14 11:17:10;;;;;;;8.23;4.00;;;;;;;10.13;59.84;100101.91;5081012;28;20438;-72
2021/03/14 11:19:38;;;;;;;8.33;3.90;;;;;;;9.73;60.78;100106.19;5080872;28;20461;-72
2021/03/14 11:22:04;;;;;;;9.67;4.80;;;;;;;10.85;58.04;100101.94;5080808;28;20678;-73
2021/03/14 11:24:29;;;;;;;7.83;4.10;;;;;;;11.74;54.10;100098.09;5080729;28;20504;-73
2021/03/14 11:26:54;;;;;;;8.17;4.10;;;;;;;12.27;52.14;100088.22;5080726;28;20494;-73
2021/03/14 11:29:20;;;;;;;10.37;4.40;;;;;;;13.26;49.98;100100.34;5080390;28;20267;-75
2021/03/14 11:31:45;;;;;;;8.20;4.10;;;;;;;13.15;50.63;100102.19;5080754;28;20256;-75
2021/03/14 11:34:11;;;;;;;6.37;4.00;;;;;;;12.95;50.62;100110.28;5080620;28;20204;-74
2021/03/14 11:36:36;;;;;;;6.63;3.80;;;;;;;12.08;52.57;100113.63;5080655;28;20195;-74
2021/03/14 11:39:02;;;;;;;9.10;4.20;;;;;;;11.31;54.26;100111.34;5080831;28;20469;-75
2021/03/14 11:41:27;;;;;;;9.17;4.27;;;;;;;11.59;53.30;100116.47;5080337;28;20471;-73